sensor_id;sensor_type;location;lat;lon;timestamp;temperature;humidity
31819;DHT22;18384;48.860;9.188;2023-05-07T00:00:44;16.60;96.90
31819;DHT22;18384;48.860;9.188;2023-05-07T00:03:10;16.60;96.90
31819;DHT22;18384;48.860;9.188;2023-05-07T00:05:36;16.60;96.90
31819;DHT22;18384;48.860;9.188;2023-05-07T00:08:03;16.60;96.90
31819;DHT22;18384;48.860;9.188;2023-05-07T00:10:29;16.60;96.90
31819;DHT22;18384;48.860;9.188;2023-05-07T00:12:56;16.60;96.90
31819;DHT22;18384;48.860;9.188;2023-05-07T00:15:22;16.60;96.90
31819;DHT22;18384;48.860;9.188;2023-05-07T00:17:48;16.60;97.40
31819;DHT22;18384;48.860;9.188;2023-05-07T00:20:14;16.60;97.10
31819;DHT22;18384;48.860;9.188;2023-05-07T00:22:40;16.60;96.80
31819;DHT22;18384;48.860;9.188;2023-05-07T00:25:07;16.70;96.70
31819;DHT22;18384;48.860;9.188;2023-05-07T00:27:33;16.60;96.80
31819;DHT22;18384;48.860;9.188;2023-05-07T00:29:59;16.70;97.00
31819;DHT22;18384;48.860;9.188;2023-05-07T00:32:25;16.60;97.10
31819;DHT22;18384;48.860;9.188;2023-05-07T00:34:52;16.60;97.20
31819;DHT22;18384;48.860;9.188;2023-05-07T00:37:18;16.60;97.10
31819;DHT22;18384;48.860;9.188;2023-05-07T00:39:44;16.60;96.80
31819;DHT22;18384;48.860;9.188;2023-05-07T00:42:10;16.50;96.90
31819;DHT22;18384;48.860;9.188;2023-05-07T00:44:36;16.50;97.00
31819;DHT22;18384;48.860;9.188;2023-05-07T00:47:03;16.50;97.10
31819;DHT22;18384;48.860;9.188;2023-05-07T00:49:39;16.50;97.10
31819;DHT22;18384;48.860;9.188;2023-05-07T00:52:09;16.40;97.30
31819;DHT22;18384;48.860;9.188;2023-05-07T00:54:37;16.40;97.40
31819;DHT22;18384;48.860;9.188;2023-05-07T00:57:03;16.40;97.70
31819;DHT22;18384;48.860;9.188;2023-05-07T00:59:31;16.40;97.80
31819;DHT22;18384;48.860;9.188;2023-05-07T01:01:58;16.30;97.90
31819;DHT22;18384;48.860;9.188;2023-05-07T01:04:26;16.30;98.10
31819;DHT22;18384;48.860;9.188;2023-05-07T01:06:54;16.30;98.10
31819;DHT22;18384;48.860;9.188;2023-05-07T01:09:22;16.20;98.10
31819;DHT22;18384;48.860;9.188;2023-05-07T01:11:52;16.20;98.20
31819;DHT22;18384;48.860;9.188;2023-05-07T01:14:19;16.20;98.00
31819;DHT22;18384;48.860;9.188;2023-05-07T01:16:47;16.10;97.90
31819;DHT22;18384;48.860;9.188;2023-05-07T01:19:14;16.10;98.20
31819;DHT22;18384;48.860;9.188;2023-05-07T01:21:46;16.10;98.10
31819;DHT22;18384;48.860;9.188;2023-05-07T01:24:14;16.10;98.40
31819;DHT22;18384;48.860;9.188;2023-05-07T01:26:41;16.10;98.40
31819;DHT22;18384;48.860;9.188;2023-05-07T01:29:07;16.00;98.60
31819;DHT22;18384;48.860;9.188;2023-05-07T01:31:34;16.00;98.50
31819;DHT22;18384;48.860;9.188;2023-05-07T01:34:03;16.00;98.50
31819;DHT22;18384;48.860;9.188;2023-05-07T01:36:31;16.00;98.50
31819;DHT22;18384;48.860;9.188;2023-05-07T01:38:57;16.10;98.40
31819;DHT22;18384;48.860;9.188;2023-05-07T01:41:24;16.10;98.30
31819;DHT22;18384;48.860;9.188;2023-05-07T01:43:50;16.10;98.10
31819;DHT22;18384;48.860;9.188;2023-05-07T01:46:17;16.10;98.00
31819;DHT22;18384;48.860;9.188;2023-05-07T01:48:45;16.10;97.70
31819;DHT22;18384;48.860;9.188;2023-05-07T01:51:12;16.60;97.90
31819;DHT22;18384;48.860;9.188;2023-05-07T01:53:39;16.10;97.90
31819;DHT22;18384;48.860;9.188;2023-05-07T01:56:06;16.10;97.80
31819;DHT22;18384;48.860;9.188;2023-05-07T01:58:32;16.10;97.80
31819;DHT22;18384;48.860;9.188;2023-05-07T02:00:58;16.10;98.00
31819;DHT22;18384;48.860;9.188;2023-05-07T02:03:24;16.10;98.20
31819;DHT22;18384;48.860;9.188;2023-05-07T02:05:51;16.00;98.30
31819;DHT22;18384;48.860;9.188;2023-05-07T02:08:17;16.00;98.30
31819;DHT22;18384;48.860;9.188;2023-05-07T02:10:43;16.00;98.10
31819;DHT22;18384;48.860;9.188;2023-05-07T02:13:09;15.90;98.10
31819;DHT22;18384;48.860;9.188;2023-05-07T02:15:35;15.90;98.20
31819;DHT22;18384;48.860;9.188;2023-05-07T02:18:07;15.90;98.30
31819;DHT22;18384;48.860;9.188;2023-05-07T02:20:34;15.90;98.40
31819;DHT22;18384;48.860;9.188;2023-05-07T02:23:00;15.90;98.30
31819;DHT22;18384;48.860;9.188;2023-05-07T02:25:26;15.90;98.10
31819;DHT22;18384;48.860;9.188;2023-05-07T02:27:53;15.90;98.00
31819;DHT22;18384;48.860;9.188;2023-05-07T02:30:19;15.90;98.10
31819;DHT22;18384;48.860;9.188;2023-05-07T02:32:46;15.90;98.50
31819;DHT22;18384;48.860;9.188;2023-05-07T02:35:12;15.80;98.20
31819;DHT22;18384;48.860;9.188;2023-05-07T02:37:38;15.80;98.40
31819;DHT22;18384;48.860;9.188;2023-05-07T02:40:05;15.80;98.40
31819;DHT22;18384;48.860;9.188;2023-05-07T02:42:32;15.80;98.30
31819;DHT22;18384;48.860;9.188;2023-05-07T02:44:58;15.80;98.40
31819;DHT22;18384;48.860;9.188;2023-05-07T02:47:24;15.80;98.50
31819;DHT22;18384;48.860;9.188;2023-05-07T02:49:53;15.70;98.50
31819;DHT22;18384;48.860;9.188;2023-05-07T02:52:22;15.70;98.60
31819;DHT22;18384;48.860;9.188;2023-05-07T02:54:48;15.70;98.60
31819;DHT22;18384;48.860;9.188;2023-05-07T02:57:14;15.70;98.60
31819;DHT22;18384;48.860;9.188;2023-05-07T02:59:42;15.60;98.90
31819;DHT22;18384;48.860;9.188;2023-05-07T03:02:08;15.60;98.90
31819;DHT22;18384;48.860;9.188;2023-05-07T03:04:34;15.60;99.20
31819;DHT22;18384;48.860;9.188;2023-05-07T03:07:00;15.50;98.90
31819;DHT22;18384;48.860;9.188;2023-05-07T03:09:26;15.50;98.90
31819;DHT22;18384;48.860;9.188;2023-05-07T03:11:52;15.40;98.90
31819;DHT22;18384;48.860;9.188;2023-05-07T03:14:19;15.40;99.10
31819;DHT22;18384;48.860;9.188;2023-05-07T03:16:45;15.40;99.30
31819;DHT22;18384;48.860;9.188;2023-05-07T03:19:12;15.40;99.40
31819;DHT22;18384;48.860;9.188;2023-05-07T03:21:38;15.30;99.30
31819;DHT22;18384;48.860;9.188;2023-05-07T03:24:05;15.30;99.20
31819;DHT22;18384;48.860;9.188;2023-05-07T03:26:31;15.30;99.10
31819;DHT22;18384;48.860;9.188;2023-05-07T03:28:57;15.30;99.20
31819;DHT22;18384;48.860;9.188;2023-05-07T03:31:23;15.20;99.30
31819;DHT22;18384;48.860;9.188;2023-05-07T03:33:54;15.30;99.30
31819;DHT22;18384;48.860;9.188;2023-05-07T03:36:21;15.20;99.50
31819;DHT22;18384;48.860;9.188;2023-05-07T03:38:48;15.20;99.60
31819;DHT22;18384;48.860;9.188;2023-05-07T03:41:14;15.20;99.70
31819;DHT22;18384;48.860;9.188;2023-05-07T03:43:40;15.20;99.70
31819;DHT22;18384;48.860;9.188;2023-05-07T03:46:07;15.20;99.70
31819;DHT22;18384;48.860;9.188;2023-05-07T03:48:34;15.20;99.60
31819;DHT22;18384;48.860;9.188;2023-05-07T03:51:00;15.10;99.50
31819;DHT22;18384;48.860;9.188;2023-05-07T03:53:26;15.10;99.50
31819;DHT22;18384;48.860;9.188;2023-05-07T03:55:52;15.10;99.50
31819;DHT22;18384;48.860;9.188;2023-05-07T03:58:18;15.10;99.50
31819;DHT22;18384;48.860;9.188;2023-05-07T04:00:45;15.10;99.50
31819;DHT22;18384;48.860;9.188;2023-05-07T04:03:11;15.10;99.50
31819;DHT22;18384;48.860;9.188;2023-05-07T04:05:37;15.10;99.70
31819;DHT22;18384;48.860;9.188;2023-05-07T04:08:03;15.00;99.70
31819;DHT22;18384;48.860;9.188;2023-05-07T04:10:29;15.10;99.70
31819;DHT22;18384;48.860;9.188;2023-05-07T04:12:55;15.00;99.60
31819;DHT22;18384;48.860;9.188;2023-05-07T04:15:23;15.00;99.50
31819;DHT22;18384;48.860;9.188;2023-05-07T04:17:49;15.00;99.50
31819;DHT22;18384;48.860;9.188;2023-05-07T04:20:16;15.00;99.70
31819;DHT22;18384;48.860;9.188;2023-05-07T04:22:43;15.00;99.60
31819;DHT22;18384;48.860;9.188;2023-05-07T04:25:09;15.10;99.60
31819;DHT22;18384;48.860;9.188;2023-05-07T04:27:35;15.10;99.50
31819;DHT22;18384;48.860;9.188;2023-05-07T04:30:02;15.10;99.70
31819;DHT22;18384;48.860;9.188;2023-05-07T04:32:29;15.20;99.70
31819;DHT22;18384;48.860;9.188;2023-05-07T04:34:56;15.20;99.70
31819;DHT22;18384;48.860;9.188;2023-05-07T04:37:22;15.20;99.60
31819;DHT22;18384;48.860;9.188;2023-05-07T04:39:48;15.20;99.30
31819;DHT22;18384;48.860;9.188;2023-05-07T04:42:15;15.30;99.20
31819;DHT22;18384;48.860;9.188;2023-05-07T04:44:43;15.30;99.20
31819;DHT22;18384;48.860;9.188;2023-05-07T04:47:11;15.30;99.10
31819;DHT22;18384;48.860;9.188;2023-05-07T04:49:38;15.40;99.20
31819;DHT22;18384;48.860;9.188;2023-05-07T04:52:04;15.50;98.90
31819;DHT22;18384;48.860;9.188;2023-05-07T04:54:30;15.60;99.10
31819;DHT22;18384;48.860;9.188;2023-05-07T04:56:56;15.60;98.70
31819;DHT22;18384;48.860;9.188;2023-05-07T04:59:23;15.70;98.60
31819;DHT22;18384;48.860;9.188;2023-05-07T05:01:49;15.80;98.80
31819;DHT22;18384;48.860;9.188;2023-05-07T05:04:15;15.80;98.70
31819;DHT22;18384;48.860;9.188;2023-05-07T05:06:41;15.90;98.60
31819;DHT22;18384;48.860;9.188;2023-05-07T05:09:07;15.90;98.20
31819;DHT22;18384;48.860;9.188;2023-05-07T05:11:33;15.80;98.00
31819;DHT22;18384;48.860;9.188;2023-05-07T05:14:00;15.90;98.20
31819;DHT22;18384;48.860;9.188;2023-05-07T05:16:26;15.80;97.50
31819;DHT22;18384;48.860;9.188;2023-05-07T05:18:52;15.80;97.50
31819;DHT22;18384;48.860;9.188;2023-05-07T05:21:20;15.80;97.60
31819;DHT22;18384;48.860;9.188;2023-05-07T05:23:46;15.70;97.70
31819;DHT22;18384;48.860;9.188;2023-05-07T05:26:12;15.80;97.80
31819;DHT22;18384;48.860;9.188;2023-05-07T05:28:39;15.70;97.70
31819;DHT22;18384;48.860;9.188;2023-05-07T05:31:05;15.80;97.80
31819;DHT22;18384;48.860;9.188;2023-05-07T05:33:31;15.90;97.80
31819;DHT22;18384;48.860;9.188;2023-05-07T05:35:57;15.90;97.90
31819;DHT22;18384;48.860;9.188;2023-05-07T05:38:23;16.00;97.70
31819;DHT22;18384;48.860;9.188;2023-05-07T05:40:49;16.10;97.60
31819;DHT22;18384;48.860;9.188;2023-05-07T05:43:16;16.30;97.60
31819;DHT22;18384;48.860;9.188;2023-05-07T05:45:42;16.40;97.30
31819;DHT22;18384;48.860;9.188;2023-05-07T05:48:08;16.60;97.60
31819;DHT22;18384;48.860;9.188;2023-05-07T05:50:34;16.80;96.80
31819;DHT22;18384;48.860;9.188;2023-05-07T05:53:03;17.00;96.80
31819;DHT22;18384;48.860;9.188;2023-05-07T05:55:30;17.20;96.40
31819;DHT22;18384;48.860;9.188;2023-05-07T05:57:58;17.30;95.80
31819;DHT22;18384;48.860;9.188;2023-05-07T06:00:25;17.40;95.80
31819;DHT22;18384;48.860;9.188;2023-05-07T06:02:52;17.50;95.30
31819;DHT22;18384;48.860;9.188;2023-05-07T06:05:18;17.70;95.10
31819;DHT22;18384;48.860;9.188;2023-05-07T06:07:44;17.80;94.70
31819;DHT22;18384;48.860;9.188;2023-05-07T06:10:10;17.80;94.70
31819;DHT22;18384;48.860;9.188;2023-05-07T06:12:36;17.80;94.40
31819;DHT22;18384;48.860;9.188;2023-05-07T06:15:03;17.80;94.80
31819;DHT22;18384;48.860;9.188;2023-05-07T06:17:29;17.80;95.20
31819;DHT22;18384;48.860;9.188;2023-05-07T06:19:55;17.90;95.10
31819;DHT22;18384;48.860;9.188;2023-05-07T06:22:22;17.90;94.80
31819;DHT22;18384;48.860;9.188;2023-05-07T06:24:48;17.90;94.60
31819;DHT22;18384;48.860;9.188;2023-05-07T06:27:14;17.90;94.70
31819;DHT22;18384;48.860;9.188;2023-05-07T06:29:40;17.90;95.30
31819;DHT22;18384;48.860;9.188;2023-05-07T06:32:10;18.10;95.30
31819;DHT22;18384;48.860;9.188;2023-05-07T06:34:37;18.20;95.10
31819;DHT22;18384;48.860;9.188;2023-05-07T06:37:04;18.30;94.40
31819;DHT22;18384;48.860;9.188;2023-05-07T06:39:31;18.20;95.00
31819;DHT22;18384;48.860;9.188;2023-05-07T06:41:57;18.20;94.50
31819;DHT22;18384;48.860;9.188;2023-05-07T06:44:24;18.30;94.50
31819;DHT22;18384;48.860;9.188;2023-05-07T06:46:50;18.30;94.40
31819;DHT22;18384;48.860;9.188;2023-05-07T06:49:16;18.40;94.50
31819;DHT22;18384;48.860;9.188;2023-05-07T06:51:42;18.40;95.00
31819;DHT22;18384;48.860;9.188;2023-05-07T06:54:08;18.50;95.00
31819;DHT22;18384;48.860;9.188;2023-05-07T06:56:34;18.50;94.70
31819;DHT22;18384;48.860;9.188;2023-05-07T06:59:02;18.60;94.80
31819;DHT22;18384;48.860;9.188;2023-05-07T07:01:28;18.70;94.60
31819;DHT22;18384;48.860;9.188;2023-05-07T07:03:55;18.70;94.50
31819;DHT22;18384;48.860;9.188;2023-05-07T07:06:21;18.70;94.90
31819;DHT22;18384;48.860;9.188;2023-05-07T07:08:47;18.80;95.70
31819;DHT22;18384;48.860;9.188;2023-05-07T07:11:13;18.90;95.30
31819;DHT22;18384;48.860;9.188;2023-05-07T07:13:39;19.00;95.40
31819;DHT22;18384;48.860;9.188;2023-05-07T07:16:05;19.00;94.80
31819;DHT22;18384;48.860;9.188;2023-05-07T07:18:31;19.10;94.60
31819;DHT22;18384;48.860;9.188;2023-05-07T07:20:57;19.00;94.20
31819;DHT22;18384;48.860;9.188;2023-05-07T07:23:24;19.10;94.90
31819;DHT22;18384;48.860;9.188;2023-05-07T07:25:50;19.10;94.90
31819;DHT22;18384;48.860;9.188;2023-05-07T07:28:17;19.10;95.00
31819;DHT22;18384;48.860;9.188;2023-05-07T07:30:43;19.20;95.00
31819;DHT22;18384;48.860;9.188;2023-05-07T07:33:09;19.20;94.50
31819;DHT22;18384;48.860;9.188;2023-05-07T07:35:35;19.30;94.50
31819;DHT22;18384;48.860;9.188;2023-05-07T07:38:02;19.30;94.50
31819;DHT22;18384;48.860;9.188;2023-05-07T07:40:28;19.50;94.80
31819;DHT22;18384;48.860;9.188;2023-05-07T07:42:54;19.50;94.10
31819;DHT22;18384;48.860;9.188;2023-05-07T07:45:20;19.60;94.60
31819;DHT22;18384;48.860;9.188;2023-05-07T07:47:46;19.80;94.00
31819;DHT22;18384;48.860;9.188;2023-05-07T07:50:12;20.00;94.00
31819;DHT22;18384;48.860;9.188;2023-05-07T07:52:38;20.10;93.70
31819;DHT22;18384;48.860;9.188;2023-05-07T07:55:05;20.00;93.50
31819;DHT22;18384;48.860;9.188;2023-05-07T07:57:32;20.00;94.10
31819;DHT22;18384;48.860;9.188;2023-05-07T07:59:58;20.00;93.90
31819;DHT22;18384;48.860;9.188;2023-05-07T08:02:24;20.00;93.90
31819;DHT22;18384;48.860;9.188;2023-05-07T08:04:50;20.00;93.90
31819;DHT22;18384;48.860;9.188;2023-05-07T08:07:16;20.00;93.70
31819;DHT22;18384;48.860;9.188;2023-05-07T08:09:46;20.00;93.80
31819;DHT22;18384;48.860;9.188;2023-05-07T08:12:12;20.00;93.60
31819;DHT22;18384;48.860;9.188;2023-05-07T08:14:38;20.00;94.10
31819;DHT22;18384;48.860;9.188;2023-05-07T08:17:04;20.00;93.50
31819;DHT22;18384;48.860;9.188;2023-05-07T08:19:30;20.00;93.90
31819;DHT22;18384;48.860;9.188;2023-05-07T08:21:56;20.10;94.10
31819;DHT22;18384;48.860;9.188;2023-05-07T08:24:22;20.10;93.80
31819;DHT22;18384;48.860;9.188;2023-05-07T08:26:49;20.20;93.60
31819;DHT22;18384;48.860;9.188;2023-05-07T08:29:15;20.20;93.80
31819;DHT22;18384;48.860;9.188;2023-05-07T08:31:41;20.30;93.60
31819;DHT22;18384;48.860;9.188;2023-05-07T08:34:07;20.40;93.80
31819;DHT22;18384;48.860;9.188;2023-05-07T08:36:33;20.40;93.30
31819;DHT22;18384;48.860;9.188;2023-05-07T08:38:59;20.50;93.60
31819;DHT22;18384;48.860;9.188;2023-05-07T08:41:26;20.60;93.40
31819;DHT22;18384;48.860;9.188;2023-05-07T08:43:52;20.60;93.40
31819;DHT22;18384;48.860;9.188;2023-05-07T08:46:20;20.00;93.40
31819;DHT22;18384;48.860;9.188;2023-05-07T08:48:49;20.80;93.40
31819;DHT22;18384;48.860;9.188;2023-05-07T08:51:18;20.90;93.30
31819;DHT22;18384;48.860;9.188;2023-05-07T08:53:47;20.90;93.40
31819;DHT22;18384;48.860;9.188;2023-05-07T08:56:14;21.00;93.10
31819;DHT22;18384;48.860;9.188;2023-05-07T08:58:45;21.10;93.00
31819;DHT22;18384;48.860;9.188;2023-05-07T09:01:12;20.90;93.20
31819;DHT22;18384;48.860;9.188;2023-05-07T09:03:39;21.40;92.70
31819;DHT22;18384;48.860;9.188;2023-05-07T09:06:06;21.50;92.10
31819;DHT22;18384;48.860;9.188;2023-05-07T09:08:33;21.60;92.10
31819;DHT22;18384;48.860;9.188;2023-05-07T09:11:00;21.80;92.80
31819;DHT22;18384;48.860;9.188;2023-05-07T09:13:27;21.90;92.40
31819;DHT22;18384;48.860;9.188;2023-05-07T09:15:54;22.00;91.70
31819;DHT22;18384;48.860;9.188;2023-05-07T09:18:20;21.90;91.60
31819;DHT22;18384;48.860;9.188;2023-05-07T09:20:46;22.00;92.10
31819;DHT22;18384;48.860;9.188;2023-05-07T09:23:12;22.10;91.60
31819;DHT22;18384;48.860;9.188;2023-05-07T09:25:39;22.30;91.80
31819;DHT22;18384;48.860;9.188;2023-05-07T09:28:05;22.30;92.10
31819;DHT22;18384;48.860;9.188;2023-05-07T09:30:33;22.40;91.80
31819;DHT22;18384;48.860;9.188;2023-05-07T09:33:01;22.60;91.60
31819;DHT22;18384;48.860;9.188;2023-05-07T09:35:28;22.60;91.50
31819;DHT22;18384;48.860;9.188;2023-05-07T09:37:57;22.60;91.50
31819;DHT22;18384;48.860;9.188;2023-05-07T09:40:29;22.70;91.20
31819;DHT22;18384;48.860;9.188;2023-05-07T09:42:56;22.50;91.20
31819;DHT22;18384;48.860;9.188;2023-05-07T09:45:33;22.50;91.50
31819;DHT22;18384;48.860;9.188;2023-05-07T09:47:59;22.40;91.60
31819;DHT22;18384;48.860;9.188;2023-05-07T09:50:28;22.40;91.40
31819;DHT22;18384;48.860;9.188;2023-05-07T09:52:56;22.30;91.40
31819;DHT22;18384;48.860;9.188;2023-05-07T09:55:23;22.30;91.80
31819;DHT22;18384;48.860;9.188;2023-05-07T09:57:53;22.30;91.90
31819;DHT22;18384;48.860;9.188;2023-05-07T10:00:20;22.40;91.50
31819;DHT22;18384;48.860;9.188;2023-05-07T10:02:49;22.30;91.80
31819;DHT22;18384;48.860;9.188;2023-05-07T10:05:18;22.30;91.50
31819;DHT22;18384;48.860;9.188;2023-05-07T10:07:46;22.20;91.40
31819;DHT22;18384;48.860;9.188;2023-05-07T10:10:12;22.20;91.50
31819;DHT22;18384;48.860;9.188;2023-05-07T10:12:40;22.20;91.60
31819;DHT22;18384;48.860;9.188;2023-05-07T10:15:08;22.10;91.80
31819;DHT22;18384;48.860;9.188;2023-05-07T10:17:39;22.20;91.50
31819;DHT22;18384;48.860;9.188;2023-05-07T10:20:07;22.40;91.40
31819;DHT22;18384;48.860;9.188;2023-05-07T10:22:46;22.50;91.20
31819;DHT22;18384;48.860;9.188;2023-05-07T10:25:30;22.50;91.00
31819;DHT22;18384;48.860;9.188;2023-05-07T10:28:00;22.50;90.90
31819;DHT22;18384;48.860;9.188;2023-05-07T10:31:37;22.50;91.00
31819;DHT22;18384;48.860;9.188;2023-05-07T10:34:24;22.70;91.80
31819;DHT22;18384;48.860;9.188;2023-05-07T10:36:55;22.70;90.70
31819;DHT22;18384;48.860;9.188;2023-05-07T10:39:22;22.70;90.70
31819;DHT22;18384;48.860;9.188;2023-05-07T10:41:48;22.70;90.70
31819;DHT22;18384;48.860;9.188;2023-05-07T10:44:28;22.70;91.10
31819;DHT22;18384;48.860;9.188;2023-05-07T10:47:08;22.60;91.50
31819;DHT22;18384;48.860;9.188;2023-05-07T10:53:22;22.70;90.40
31819;DHT22;18384;48.860;9.188;2023-05-07T10:55:51;22.70;90.50
31819;DHT22;18384;48.860;9.188;2023-05-07T10:58:29;22.70;90.80
31819;DHT22;18384;48.860;9.188;2023-05-07T11:01:02;22.80;90.60
31819;DHT22;18384;48.860;9.188;2023-05-07T11:03:28;22.80;90.60
31819;DHT22;18384;48.860;9.188;2023-05-07T11:06:14;22.80;90.70
31819;DHT22;18384;48.860;9.188;2023-05-07T11:08:55;22.80;91.00
31819;DHT22;18384;48.860;9.188;2023-05-07T11:11:47;22.80;91.60
31819;DHT22;18384;48.860;9.188;2023-05-07T11:14:42;22.70;90.60
31819;DHT22;18384;48.860;9.188;2023-05-07T11:17:10;22.70;90.80
31819;DHT22;18384;48.860;9.188;2023-05-07T11:19:53;22.70;90.70
31819;DHT22;18384;48.860;9.188;2023-05-07T11:24:12;22.70;90.60
31819;DHT22;18384;48.860;9.188;2023-05-07T11:26:50;22.70;90.80
31819;DHT22;18384;48.860;9.188;2023-05-07T11:29:19;22.70;90.70
31819;DHT22;18384;48.860;9.188;2023-05-07T11:31:55;22.70;90.90
31819;DHT22;18384;48.860;9.188;2023-05-07T11:34:25;22.60;90.50
31819;DHT22;18384;48.860;9.188;2023-05-07T11:36:52;22.60;90.80
31819;DHT22;18384;48.860;9.188;2023-05-07T11:39:29;22.70;90.90
31819;DHT22;18384;48.860;9.188;2023-05-07T11:41:57;22.70;90.10
31819;DHT22;18384;48.860;9.188;2023-05-07T11:44:23;22.80;90.20
31819;DHT22;18384;48.860;9.188;2023-05-07T11:46:49;22.80;90.00
31819;DHT22;18384;48.860;9.188;2023-05-07T11:49:15;22.80;89.50
31819;DHT22;18384;48.860;9.188;2023-05-07T11:51:42;22.80;88.70
31819;DHT22;18384;48.860;9.188;2023-05-07T11:54:09;22.90;88.80
31819;DHT22;18384;48.860;9.188;2023-05-07T11:56:37;23.00;89.50
31819;DHT22;18384;48.860;9.188;2023-05-07T11:59:04;23.10;88.90
31819;DHT22;18384;48.860;9.188;2023-05-07T12:01:30;23.10;87.50
31819;DHT22;18384;48.860;9.188;2023-05-07T12:03:56;23.10;87.40
31819;DHT22;18384;48.860;9.188;2023-05-07T12:06:22;23.20;86.20
31819;DHT22;18384;48.860;9.188;2023-05-07T12:08:48;23.30;86.50
31819;DHT22;18384;48.860;9.188;2023-05-07T12:11:25;23.30;86.70
31819;DHT22;18384;48.860;9.188;2023-05-07T12:13:51;23.30;86.10
31819;DHT22;18384;48.860;9.188;2023-05-07T12:16:19;23.30;86.10
31819;DHT22;18384;48.860;9.188;2023-05-07T12:18:45;23.30;86.00
31819;DHT22;18384;48.860;9.188;2023-05-07T12:21:12;23.30;86.20
31819;DHT22;18384;48.860;9.188;2023-05-07T12:23:38;23.30;85.90
31819;DHT22;18384;48.860;9.188;2023-05-07T12:26:05;23.30;85.60
31819;DHT22;18384;48.860;9.188;2023-05-07T12:28:31;23.20;85.80
31819;DHT22;18384;48.860;9.188;2023-05-07T12:31:03;23.20;85.80
31819;DHT22;18384;48.860;9.188;2023-05-07T12:33:29;23.20;86.20
31819;DHT22;18384;48.860;9.188;2023-05-07T12:35:57;23.10;85.90
31819;DHT22;18384;48.860;9.188;2023-05-07T12:38:23;23.20;86.90
31819;DHT22;18384;48.860;9.188;2023-05-07T12:40:53;23.20;85.80
31819;DHT22;18384;48.860;9.188;2023-05-07T12:43:21;23.30;85.90
31819;DHT22;18384;48.860;9.188;2023-05-07T12:45:51;23.30;86.10
31819;DHT22;18384;48.860;9.188;2023-05-07T12:48:19;23.30;86.40
31819;DHT22;18384;48.860;9.188;2023-05-07T12:50:55;23.30;86.40
31819;DHT22;18384;48.860;9.188;2023-05-07T12:53:24;23.20;88.60
31819;DHT22;18384;48.860;9.188;2023-05-07T12:55:54;23.00;90.60
31819;DHT22;18384;48.860;9.188;2023-05-07T12:58:25;22.40;90.90
31819;DHT22;18384;48.860;9.188;2023-05-07T13:01:11;22.00;92.40
31819;DHT22;18384;48.860;9.188;2023-05-07T13:03:41;21.70;93.70
31819;DHT22;18384;48.860;9.188;2023-05-07T13:06:07;21.30;94.80
31819;DHT22;18384;48.860;9.188;2023-05-07T13:08:40;21.10;95.40
31819;DHT22;18384;48.860;9.188;2023-05-07T13:11:09;21.00;96.20
31819;DHT22;18384;48.860;9.188;2023-05-07T13:13:37;20.70;96.60
31819;DHT22;18384;48.860;9.188;2023-05-07T13:16:05;20.60;97.00
31819;DHT22;18384;48.860;9.188;2023-05-07T13:18:33;20.50;97.00
31819;DHT22;18384;48.860;9.188;2023-05-07T13:21:00;20.40;96.90
31819;DHT22;18384;48.860;9.188;2023-05-07T13:23:27;20.50;96.80
31819;DHT22;18384;48.860;9.188;2023-05-07T13:25:54;20.40;96.60
31819;DHT22;18384;48.860;9.188;2023-05-07T13:28:21;20.30;96.00
31819;DHT22;18384;48.860;9.188;2023-05-07T13:30:48;20.10;96.00
31819;DHT22;18384;48.860;9.188;2023-05-07T13:33:14;20.10;95.10
31819;DHT22;18384;48.860;9.188;2023-05-07T13:35:41;20.10;94.80
31819;DHT22;18384;48.860;9.188;2023-05-07T13:38:07;19.80;94.60
31819;DHT22;18384;48.860;9.188;2023-05-07T13:40:33;19.70;95.50
31819;DHT22;18384;48.860;9.188;2023-05-07T13:42:59;19.60;96.30
31819;DHT22;18384;48.860;9.188;2023-05-07T13:45:29;19.40;96.50
31819;DHT22;18384;48.860;9.188;2023-05-07T13:47:56;19.20;97.10
31819;DHT22;18384;48.860;9.188;2023-05-07T13:50:23;19.10;97.90
31819;DHT22;18384;48.860;9.188;2023-05-07T13:52:49;19.10;97.40
31819;DHT22;18384;48.860;9.188;2023-05-07T13:55:18;19.00;97.70
31819;DHT22;18384;48.860;9.188;2023-05-07T13:57:46;19.00;97.70
31819;DHT22;18384;48.860;9.188;2023-05-07T14:00:13;18.90;97.00
31819;DHT22;18384;48.860;9.188;2023-05-07T14:02:40;18.80;97.00
31819;DHT22;18384;48.860;9.188;2023-05-07T14:05:07;18.90;96.30
31819;DHT22;18384;48.860;9.188;2023-05-07T14:07:34;19.00;96.00
31819;DHT22;18384;48.860;9.188;2023-05-07T14:10:01;19.00;95.10
31819;DHT22;18384;48.860;9.188;2023-05-07T14:12:27;19.90;95.60
31819;DHT22;18384;48.860;9.188;2023-05-07T14:14:53;19.00;95.90
31819;DHT22;18384;48.860;9.188;2023-05-07T14:17:19;18.80;96.20
31819;DHT22;18384;48.860;9.188;2023-05-07T14:19:45;18.80;97.20
31819;DHT22;18384;48.860;9.188;2023-05-07T14:22:13;18.80;97.90
31819;DHT22;18384;48.860;9.188;2023-05-07T14:24:40;18.60;97.30
31819;DHT22;18384;48.860;9.188;2023-05-07T14:27:07;18.50;97.40
31819;DHT22;18384;48.860;9.188;2023-05-07T14:29:33;18.40;98.20
31819;DHT22;18384;48.860;9.188;2023-05-07T14:32:01;18.30;98.60
31819;DHT22;18384;48.860;9.188;2023-05-07T14:34:28;18.20;98.50
31819;DHT22;18384;48.860;9.188;2023-05-07T14:36:54;18.20;98.80
31819;DHT22;18384;48.860;9.188;2023-05-07T14:39:21;18.10;98.90
31819;DHT22;18384;48.860;9.188;2023-05-07T14:41:47;18.10;99.30
31819;DHT22;18384;48.860;9.188;2023-05-07T14:44:13;18.10;99.40
31819;DHT22;18384;48.860;9.188;2023-05-07T14:46:39;18.20;99.50
31819;DHT22;18384;48.860;9.188;2023-05-07T14:49:05;18.20;99.70
31819;DHT22;18384;48.860;9.188;2023-05-07T14:51:32;18.20;99.70
31819;DHT22;18384;48.860;9.188;2023-05-07T14:53:58;18.30;99.20
31819;DHT22;18384;48.860;9.188;2023-05-07T14:56:25;18.30;99.50
31819;DHT22;18384;48.860;9.188;2023-05-07T14:58:51;18.30;99.30
31819;DHT22;18384;48.860;9.188;2023-05-07T15:01:17;18.30;98.90
31819;DHT22;18384;48.860;9.188;2023-05-07T15:03:43;18.50;99.10
31819;DHT22;18384;48.860;9.188;2023-05-07T15:06:10;18.50;98.50
31819;DHT22;18384;48.860;9.188;2023-05-07T15:08:36;18.60;98.60
31819;DHT22;18384;48.860;9.188;2023-05-07T15:11:02;18.60;98.60
31819;DHT22;18384;48.860;9.188;2023-05-07T15:13:28;18.60;98.90
31819;DHT22;18384;48.860;9.188;2023-05-07T15:15:54;18.60;98.80
31819;DHT22;18384;48.860;9.188;2023-05-07T15:18:20;18.70;98.50
31819;DHT22;18384;48.860;9.188;2023-05-07T15:20:46;18.70;98.50
31819;DHT22;18384;48.860;9.188;2023-05-07T15:23:12;18.80;98.50
31819;DHT22;18384;48.860;9.188;2023-05-07T15:25:39;18.80;98.50
31819;DHT22;18384;48.860;9.188;2023-05-07T15:28:05;18.90;98.30
31819;DHT22;18384;48.860;9.188;2023-05-07T15:30:31;18.90;98.90
31819;DHT22;18384;48.860;9.188;2023-05-07T15:32:57;19.00;98.90
31819;DHT22;18384;48.860;9.188;2023-05-07T15:35:24;19.10;98.70
31819;DHT22;18384;48.860;9.188;2023-05-07T15:37:51;19.10;98.60